Time;durP1;ratioP1;P1;durP2;ratioP2;P2;SDS_P1;SDS_P2;PMS_P1;PMS_P2;Temp;Humidity;BMP_temperature;BMP_pressure;BME280_temperature;BME280_humidity;BME280_pressure;Samples;Min_cycle;Max_cycle;Signal;HPM_P1;HPM_P2
2023/03/30 00:02:04;;;;;;;5.07;1.70;;;;;;;;;;5061869;28;20112;-84
2023/03/30 00:04:33;;;;;;;3.92;1.85;;;;;;;;;;5060724;28;20062;-85
2023/03/30 00:07:00;;;;;;;2.08;1.73;;;;;;;;;;5061222;28;20084;-84
2023/03/30 00:09:29;;;;;;;2.58;1.90;;;;;;;;;;5060818;28;20076;-85
2023/03/30 00:12:01;;;;;;;5.05;2.40;;;;;;;;;;5060997;28;20531;-85
2023/03/30 00:14:29;;;;;;;6.82;2.10;;;;;;;;;;5061268;28;20054;-84
2023/03/30 00:16:56;;;;;;;5.03;1.75;;;;;;;;;;5060227;28;20507;-85
2023/03/30 00:19:28;;;;;;;5.72;2.05;;;;;;;;;;5060880;28;20047;-85
2023/03/30 00:21:56;;;;;;;2.25;1.85;;;;;;;;;;5061039;28;20079;-84
2023/03/30 00:24:23;;;;;;;3.45;1.92;;;;;;;;;;5061407;28;20140;-85
2023/03/30 00:26:50;;;;;;;6.82;2.10;;;;;;;;;;5060996;28;20080;-85
2023/03/30 00:29:18;;;;;;;4.50;1.92;;;;;;;;;;5061036;28;20060;-85
2023/03/30 00:31:45;;;;;;;5.88;1.95;;;;;;;;;;5061181;28;20048;-85
2023/03/30 00:34:15;;;;;;;2.92;1.88;;;;;;;;;;5061257;28;20072;-85
2023/03/30 00:36:42;;;;;;;4.50;2.03;;;;;;;;;;5061280;28;20056;-84
2023/03/30 00:39:09;;;;;;;4.90;2.15;;;;;;;;;;5060942;28;20044;-84
2023/03/30 00:41:36;;;;;;;3.85;1.83;;;;;;;;;;5060872;28;20067;-84
2023/03/30 00:44:06;;;;;;;8.43;2.15;;;;;;;;;;5061371;28;20430;-85
2023/03/30 00:46:33;;;;;;;8.85;2.60;;;;;;;;;;5060967;28;20058;-85
2023/03/30 00:49:05;;;;;;;6.13;1.75;;;;;;;;;;5056606;28;20045;-84
2023/03/30 00:51:35;;;;;;;7.78;2.65;;;;;;;;;;5056364;28;20054;-83
2023/03/30 00:54:08;;;;;;;7.40;2.30;;;;;;;;;;5056899;28;20053;-84
2023/03/30 00:56:35;;;;;;;6.20;2.10;;;;;;;;;;5057097;28;20053;-84
2023/03/30 00:59:03;;;;;;;3.33;1.83;;;;;;;;;;5057299;28;20279;-84
2023/03/30 01:01:37;;;;;;;4.32;1.75;;;;;;;;;;5057878;28;20040;-84
2023/03/30 01:04:06;;;;;;;6.88;2.33;;;;;;;;;;5057958;28;20102;-84
2023/03/30 01:06:39;;;;;;;4.45;1.52;;;;;;;;;;5057100;28;20143;-84
2023/03/30 01:09:07;;;;;;;8.13;2.03;;;;;;;;;;5057829;28;20529;-84
2023/03/30 01:11:34;;;;;;;5.15;1.80;;;;;;;;;;5057960;28;20052;-84
2023/03/30 01:14:04;;;;;;;7.72;2.30;;;;;;;;;;5061581;28;20045;-84
2023/03/30 01:16:38;;;;;;;2.55;2.08;;;;;;;;;;5061621;28;20048;-85
2023/03/30 01:19:24;;;;;;;4.15;1.92;;;;;;;;;;5061103;28;20087;-84
2023/03/30 01:22:03;;;;;;;3.28;1.65;;;;;;;;;;5080409;28;20052;-85
2023/03/30 01:24:52;;;;;;;5.05;2.05;;;;;;;;;;5061495;28;20098;-85
2023/03/30 01:27:20;;;;;;;3.55;1.58;;;;;;;;;;5064659;28;20052;-85
2023/03/30 01:29:57;;;;;;;7.05;2.13;;;;;;;;;;5066514;28;20048;-85
2023/03/30 01:32:27;;;;;;;3.30;2.00;;;;;;;;;;5067254;28;20130;-85
2023/03/30 01:35:13;;;;;;;2.63;1.88;;;;;;;;;;5067602;28;20099;-85
2023/03/30 01:37:59;;;;;;;4.43;1.75;;;;;;;;;;5067510;28;20053;-85
2023/03/30 01:40:30;;;;;;;4.20;1.75;;;;;;;;;;5066813;28;20076;-85
2023/03/30 01:43:03;;;;;;;3.47;1.52;;;;;;;;;;5066675;28;20074;-85
2023/03/30 01:45:42;;;;;;;8.63;2.10;;;;;;;;;;5063564;28;20045;-85
2023/03/30 01:48:12;;;;;;;3.70;2.00;;;;;;;;;;5064708;28;20059;-85
2023/03/30 01:50:42;;;;;;;4.70;1.67;;;;;;;;;;5064406;28;20515;-85
2023/03/30 01:53:18;;;;;;;3.05;1.70;;;;;;;;;;5063888;28;20045;-85
2023/03/30 01:55:52;;;;;;;6.90;2.15;;;;;;;;;;5064477;28;20049;-84
2023/03/30 01:58:23;;;;;;;2.92;1.92;;;;;;;;;;5074046;23;20057;-80
2023/03/30 02:00:50;;;;;;;5.47;1.73;;;;;;;;;;5053157;28;20052;-80
2023/03/30 02:03:26;;;;;;;4.95;1.80;;;;;;;;;;5053281;28;20053;-80
2023/03/30 02:05:57;;;;;;;4.25;2.00;;;;;;;;;;5053096;28;20431;-80
2023/03/30 02:08:27;;;;;;;4.00;1.50;;;;;;;;;;5059530;28;20075;-81
2023/03/30 02:10:56;;;;;;;5.38;1.67;;;;;;;;;;5073192;28;20055;-80
2023/03/30 02:13:25;;;;;;;7.40;2.00;;;;;;;;;;5055093;28;20045;-80
2023/03/30 02:15:56;;;;;;;3.50;1.60;;;;;;;;;;5073041;28;20044;-80
2023/03/30 02:18:23;;;;;;;4.35;1.80;;;;;;;;;;5055346;28;20045;-80
2023/03/30 02:20:50;;;;;;;4.18;1.48;;;;;;;;;;5073126;28;20051;-80
2023/03/30 02:23:19;;;;;;;6.63;1.58;;;;;;;;;;5072859;28;20514;-80
2023/03/30 02:25:47;;;;;;;5.93;2.00;;;;;;;;;;5055342;28;20045;-80
2023/03/30 02:28:15;;;;;;;5.00;1.52;;;;;;;;;;5054926;28;20235;-80
2023/03/30 02:30:43;;;;;;;6.97;1.83;;;;;;;;;;5072747;28;20048;-80
2023/03/30 02:33:17;;;;;;;4.13;1.42;;;;;;;;;;5055033;28;20098;-80
2023/03/30 02:35:44;;;;;;;;;;;;;;;;;;5058725;28;20055;-80
2023/03/30 02:38:36;;;;;;;2.42;1.58;;;;;;;;;;5076471;28;19920;-80
2023/03/30 02:41:18;;;;;;;3.13;1.60;;;;;;;;;;5058690;28;20114;-80
2023/03/30 02:44:08;;;;;;;9.07;1.60;;;;;;;;;;5076175;28;20482;-80
2023/03/30 02:46:56;;;;;;;2.30;1.55;;;;;;;;;;5076105;28;20103;-80
2023/03/30 02:49:41;;;;;;;3.45;1.90;;;;;;;;;;5058215;28;20052;-80
2023/03/30 02:52:11;;;;;;;3.38;1.60;;;;;;;;;;5076126;28;20499;-81
2023/03/30 02:54:48;;;;;;;6.78;1.77;;;;;;;;;;5058421;28;20055;-81
2023/03/30 02:57:34;;;;;;;4.05;1.52;;;;;;;;;;5058281;28;20127;-81
2023/03/30 03:00:07;;;;;;;4.80;1.45;;;;;;;;;;5058410;28;20422;-81
2023/03/30 03:02:38;;;;;;;5.28;1.30;;;;;;;;;;5058352;28;20048;-81
2023/03/30 03:05:08;;;;;;;4.43;1.55;;;;;;;;;;5058276;28;20048;-80
2023/03/30 03:07:37;;;;;;;7.22;2.33;;;;;;;;;;5057887;28;20521;-82
2023/03/30 03:10:05;;;;;;;3.80;1.60;;;;;;;;;;5058279;28;20099;-81
2023/03/30 03:12:32;;;;;;;5.82;1.35;;;;;;;;;;5057988;28;20422;-82
2023/03/30 03:15:04;;;;;;;9.80;1.75;;;;;;;;;;5057847;28;20052;-81
2023/03/30 03:17:33;;;;;;;5.85;1.45;;;;;;;;;;5058285;28;20102;-81
2023/03/30 03:20:02;;;;;;;3.42;1.25;;;;;;;;;;5058078;28;20049;-80
2023/03/30 03:22:30;;;;;;;4.18;1.52;;;;;;;;;;5058070;28;20532;-81
2023/03/30 03:24:57;;;;;;;8.80;1.90;;;;;;;;;;5058047;28;20102;-81
2023/03/30 03:27:24;;;;;;;4.82;1.65;;;;;;;;;;5057788;28;20136;-82
2023/03/30 03:29:52;;;;;;;4.95;1.50;;;;;;;;;;5057582;28;20048;-82
2023/03/30 03:32:19;;;;;;;9.43;1.92;;;;;;;;;;5075646;28;20095;-81
2023/03/30 03:34:46;;;;;;;4.45;1.60;;;;;;;;;;5057681;28;20044;-81
2023/03/30 03:37:13;;;;;;;7.15;1.90;;;;;;;;;;5075301;28;20190;-82
2023/03/30 03:39:40;;;;;;;6.45;1.52;;;;;;;;;;5076096;28;20080;-81
2023/03/30 03:42:07;;;;;;;7.22;2.20;;;;;;;;;;5077227;28;20475;-82
2023/03/30 03:44:36;;;;;;;8.77;1.85;;;;;;;;;;5064302;28;20071;-82
2023/03/30 03:47:03;;;;;;;3.50;1.50;;;;;;;;;;5063961;28;20490;-82
2023/03/30 03:49:30;;;;;;;5.07;1.73;;;;;;;;;;5063001;28;20103;-82
2023/03/30 03:51:58;;;;;;;6.35;1.65;;;;;;;;;;5062728;28;20139;-82
2023/03/30 03:54:25;;;;;;;3.28;1.63;;;;;;;;;;5079898;28;20127;-82
2023/03/30 03:56:52;;;;;;;10.07;2.25;;;;;;;;;;5061921;28;20088;-82
2023/03/30 03:59:19;;;;;;;6.78;1.80;;;;;;;;;;5058474;28;20091;-81
2023/03/30 04:01:46;;;;;;;9.65;2.60;;;;;;;;;;5058628;28;20563;-82
2023/03/30 04:04:14;;;;;;;4.78;2.80;;;;;;;;;;5059117;28;21238;-82
2023/03/30 04:06:41;;;;;;;5.47;1.52;;;;;;;;;;5057720;28;20147;-81
2023/03/30 04:09:08;;;;;;;12.35;2.75;;;;;;;;;;5057901;28;20064;-81
2023/03/30 04:11:35;;;;;;;4.93;2.80;;;;;;;;;;5042068;28;20049;-81
2023/03/30 04:14:03;;;;;;;8.52;3.70;;;;;;;;;;5057069;28;20538;-82
2023/03/30 04:16:30;;;;;;;15.50;4.28;;;;;;;;;;5056574;28;20044;-82
2023/03/30 04:18:58;;;;;;;4.50;2.58;;;;;;;;;;5056640;28;20416;-81
2023/03/30 04:21:28;;;;;;;9.48;2.88;;;;;;;;;;5039916;28;20112;-82
2023/03/30 04:23:55;;;;;;;5.90;2.78;;;;;;;;;;5045289;28;20505;-81
2023/03/30 04:26:24;;;;;;;9.80;2.17;;;;;;;;;;5036432;28;20045;-81
2023/03/30 04:28:52;;;;;;;5.15;1.95;;;;;;;;;;5036318;28;20132;-82
2023/03/30 04:31:21;;;;;;;11.02;2.50;;;;;;;;;;5036067;28;20056;-81
2023/03/30 04:33:52;;;;;;;9.23;2.85;;;;;;;;;;5037786;28;20057;-82
2023/03/30 04:36:22;;;;;;;4.95;2.15;;;;;;;;;;5036459;28;20045;-80
2023/03/30 04:38:57;;;;;;;4.38;2.03;;;;;;;;;;5036785;28;20045;-81
2023/03/30 04:41:28;;;;;;;3.80;2.33;;;;;;;;;;5036255;28;20515;-81
2023/03/30 04:43:56;;;;;;;7.43;2.60;;;;;;;;;;5038964;28;20109;-81
2023/03/30 04:46:23;;;;;;;11.30;2.50;;;;;;;;;;5039512;28;20135;-81
2023/03/30 04:48:50;;;;;;;10.18;2.30;;;;;;;;;;5039096;28;20060;-81
2023/03/30 04:51:17;;;;;;;9.20;2.50;;;;;;;;;;5039169;28;20129;-81
2023/03/30 04:53:44;;;;;;;33.53;10.52;;;;;;;;;;5056958;28;20068;-81
2023/03/30 04:56:11;;;;;;;10.70;4.75;;;;;;;;;;5038332;28;20049;-81
2023/03/30 04:58:39;;;;;;;13.20;5.30;;;;;;;;;;5054255;28;20045;-81
2023/03/30 05:01:07;;;;;;;15.25;5.97;;;;;;;;;;5037572;28;20085;-80
2023/03/30 05:03:35;;;;;;;11.85;5.60;;;;;;;;;;5037419;28;20107;-81
2023/03/30 05:06:05;;;;;;;15.25;4.22;;;;;;;;;;5055243;28;20045;-81
2023/03/30 05:08:33;;;;;;;19.35;4.63;;;;;;;;;;5037382;28;20463;-81
2023/03/30 05:11:03;;;;;;;30.77;5.95;;;;;;;;;;5055246;28;20132;-81
2023/03/30 05:13:31;;;;;;;18.08;4.82;;;;;;;;;;5037673;28;20057;-81
2023/03/30 05:15:59;;;;;;;11.00;3.40;;;;;;;;;;5038911;28;20076;-81
2023/03/30 05:18:26;;;;;;;14.98;3.17;;;;;;;;;;5055838;28;20049;-81
2023/03/30 05:20:57;;;;;;;5.97;3.03;;;;;;;;;;5038089;28;20500;-81
2023/03/30 05:23:25;;;;;;;14.57;3.05;;;;;;;;;;5055563;28;20057;-81
2023/03/30 05:25:53;;;;;;;9.55;3.03;;;;;;;;;;5038471;28;20049;-82
2023/03/30 05:28:21;;;;;;;9.50;2.20;;;;;;;;;;5063137;28;20067;-82
2023/03/30 05:31:11;;;;;;;11.52;2.13;;;;;;;;;;5078399;28;20101;-82
2023/03/30 05:33:38;;;;;;;9.50;2.45;;;;;;;;;;5042254;28;20053;-81
2023/03/30 05:36:09;;;;;;;8.35;2.08;;;;;;;;;;5043347;28;20077;-81
2023/03/30 05:38:37;;;;;;;11.70;2.50;;;;;;;;;;5043573;28;20045;-81
2023/03/30 05:41:05;;;;;;;11.32;2.25;;;;;;;;;;5043085;28;20045;-81
2023/03/30 05:43:33;;;;;;;8.43;1.80;;;;;;;;;;5042266;28;20427;-81
2023/03/30 05:46:02;;;;;;;4.57;2.10;;;;;;;;;;5057034;28;20053;-81
2023/03/30 05:48:30;;;;;;;7.75;1.83;;;;;;;;;;5037002;28;20059;-81
2023/03/30 05:50:57;;;;;;;13.50;2.28;;;;;;;;;;5054949;28;20084;-81
2023/03/30 05:53:27;;;;;;;7.68;1.98;;;;;;;;;;5037417;28;20569;-82
2023/03/30 05:55:55;;;;;;;5.18;1.90;;;;;;;;;;5037453;28;20055;-81
2023/03/30 05:58:22;;;;;;;7.65;2.40;;;;;;;;;;5036675;28;20499;-81
2023/03/30 06:00:51;;;;;;;6.55;3.47;;;;;;;;;;5054733;28;20511;-81
2023/03/30 06:03:18;;;;;;;8.00;2.13;;;;;;;;;;5037087;28;20049;-81
2023/03/30 06:05:46;;;;;;;6.80;2.10;;;;;;;;;;5037787;28;20059;-81
2023/03/30 06:08:14;;;;;;;6.00;2.28;;;;;;;;;;5037278;28;20049;-81
2023/03/30 06:10:41;;;;;;;7.85;2.20;;;;;;;;;;5041022;28;20439;-81
2023/03/30 06:13:08;;;;;;;4.93;1.90;;;;;;;;;;5041866;28;20112;-80
2023/03/30 06:15:35;;;;;;;6.15;2.88;;;;;;;;;;5060412;28;20145;-81
2023/03/30 06:18:02;;;;;;;6.07;2.08;;;;;;;;;;5045141;28;20111;-81
2023/03/30 06:20:30;;;;;;;5.32;2.00;;;;;;;;;;5061097;28;20598;-81
2023/03/30 06:22:58;;;;;;;5.38;2.17;;;;;;;;;;5059176;28;20075;-81
2023/03/30 06:25:25;;;;;;;4.97;1.80;;;;;;;;;;5042925;28;20053;-81
2023/03/30 06:27:52;;;;;;;3.63;2.00;;;;;;;;;;5041514;28;20131;-81
2023/03/30 06:30:20;;;;;;;6.47;2.13;;;;;;;;;;5043193;28;20053;-81
2023/03/30 06:32:47;;;;;;;7.30;1.90;;;;;;;;;;5044677;28;20506;-82
2023/03/30 06:35:17;;;;;;;6.15;1.63;;;;;;;;;;5043165;28;20075;-82
2023/03/30 06:37:44;;;;;;;6.70;2.00;;;;;;;;;;5058828;28;20494;-81
2023/03/30 06:40:12;;;;;;;4.68;1.90;;;;;;;;;;5041014;28;20048;-81
2023/03/30 06:42:40;;;;;;;4.55;2.00;;;;;;;;;;5040395;28;20553;-82
2023/03/30 06:45:08;;;;;;;13.02;2.47;;;;;;;;;;5058260;28;20135;-82
2023/03/30 06:47:35;;;;;;;8.05;2.15;;;;;;;;;;5039896;28;20056;-82
2023/03/30 06:50:04;;;;;;;6.60;2.17;;;;;;;;;;5042057;28;20044;-81
2023/03/30 06:52:35;;;;;;;3.25;1.80;;;;;;;;;;5042884;28;20095;-80
2023/03/30 06:55:03;;;;;;;5.13;1.83;;;;;;;;;;5042389;28;20133;-82
2023/03/30 06:57:31;;;;;;;9.48;2.05;;;;;;;;;;5042097;28;20049;-81
2023/03/30 06:59:58;;;;;;;5.28;1.92;;;;;;;;;;5059312;28;20049;-81
2023/03/30 07:02:26;;;;;;;8.95;2.50;;;;;;;;;;5057936;28;20068;-81
2023/03/30 07:04:53;;;;;;;6.95;1.77;;;;;;;;;;5040511;28;20072;-80
2023/03/30 07:07:20;;;;;;;8.98;2.35;;;;;;;;;;5057814;28;20595;-80
2023/03/30 07:09:48;;;;;;;6.88;1.77;;;;;;;;;;5042198;28;20052;-81
2023/03/30 07:12:15;;;;;;;9.43;1.95;;;;;;;;;;5044971;28;20202;-81
2023/03/30 07:14:42;;;;;;;9.73;2.53;;;;;;;;;;5048327;28;20418;-81
2023/03/30 07:17:10;;;;;;;5.18;1.70;;;;;;;;;;5043359;28;20064;-81
2023/03/30 07:19:37;;;;;;;6.45;1.80;;;;;;;;;;5047679;28;20045;-80
2023/03/30 07:22:05;;;;;;;6.53;2.47;;;;;;;;;;5062518;28;20048;-81
2023/03/30 07:24:34;;;;;;;10.32;2.33;;;;;;;;;;5067356;28;20056;-81
2023/03/30 07:27:02;;;;;;;5.50;2.30;;;;;;;;;;5083078;28;20050;-80
2023/03/30 07:29:29;;;;;;;5.68;1.85;;;;;;;;;;5080859;28;20083;-81
2023/03/30 07:31:57;;;;;;;6.72;2.78;;;;;;;;;;5061413;28;20059;-83
2023/03/30 07:34:24;;;;;;;11.13;2.70;;;;;;;;;;5061345;28;20439;-82
2023/03/30 07:36:51;;;;;;;13.10;2.58;;;;;;;;;;5060941;28;20055;-83
2023/03/30 07:39:20;;;;;;;9.52;3.47;;;;;;;;;;5061594;28;20052;-82
2023/03/30 07:41:47;;;;;;;10.00;3.00;;;;;;;;;;5078823;28;20045;-82
2023/03/30 07:44:15;;;;;;;8.48;3.30;;;;;;;;;;5060521;28;20113;-82
2023/03/30 07:46:42;;;;;;;6.18;2.45;;;;;;;;;;5060526;28;20044;-81
2023/03/30 07:49:09;;;;;;;14.57;3.92;;;;;;;;;;5061013;28;20089;-81
2023/03/30 07:51:37;;;;;;;8.27;2.85;;;;;;;;;;5078477;28;20040;-80
2023/03/30 07:54:04;;;;;;;7.68;2.50;;;;;;;;;;5060914;28;20049;-81
2023/03/30 07:56:32;;;;;;;12.18;3.35;;;;;;;;;;5059550;28;20045;-81
2023/03/30 07:58:59;;;;;;;12.30;3.65;;;;;;;;;;5050808;23;20149;-79
2023/03/30 08:01:28;;;;;;;9.73;3.00;;;;;;;;;;4995114;28;20493;-78
2023/03/30 08:03:55;;;;;;;11.38;4.03;;;;;;;;;;4994946;28;20046;-78
2023/03/30 08:06:22;;;;;;;12.13;3.90;;;;;;;;;;4977003;28;20054;-78
2023/03/30 08:08:49;;;;;;;10.98;3.50;;;;;;;;;;4984622;28;20050;-78
2023/03/30 08:11:17;;;;;;;13.48;3.92;;;;;;;;;;4996447;28;20136;-78
2023/03/30 08:13:44;;;;;;;15.63;3.80;;;;;;;;;;4996531;28;20132;-79
2023/03/30 08:16:11;;;;;;;8.38;3.65;;;;;;;;;;4996282;28;20120;-78
2023/03/30 08:18:42;;;;;;;13.77;4.47;;;;;;;;;;5013833;28;20132;-79
2023/03/30 08:21:09;;;;;;;10.48;3.75;;;;;;;;;;4996814;28;20097;-78
2023/03/30 08:23:37;;;;;;;10.20;2.95;;;;;;;;;;4996318;28;20169;-78
2023/03/30 08:26:04;;;;;;;12.07;2.75;;;;;;;;;;5013896;28;20605;-78
2023/03/30 08:28:32;;;;;;;10.82;3.22;;;;;;;;;;5013466;28;20049;-79
2023/03/30 08:31:07;;;;;;;8.95;3.00;;;;;;;;;;5013822;28;20056;-79
2023/03/30 08:33:34;;;;;;;3.40;2.80;;;;;;;;;;5013708;28;20563;-80
2023/03/30 08:36:01;;;;;;;4.57;2.90;;;;;;;;;;5014049;28;20523;-80
2023/03/30 08:38:29;;;;;;;10.70;3.05;;;;;;;;;;4996735;28;20144;-78
2023/03/30 08:40:56;;;;;;;6.80;2.65;;;;;;;;;;4996408;28;20092;-78
2023/03/30 08:43:29;;;;;;;5.72;2.28;;;;;;;;;;4996834;28;20464;-78
2023/03/30 08:45:59;;;;;;;4.75;2.00;;;;;;;;;;4996320;28;20050;-77
2023/03/30 08:48:27;;;;;;;4.97;1.90;;;;;;;;;;5014070;28;20049;-77
2023/03/30 08:50:57;;;;;;;8.32;2.08;;;;;;;;;;5014414;28;20567;-79
2023/03/30 08:53:26;;;;;;;2.90;1.58;;;;;;;;;;5013856;28;20129;-81
2023/03/30 08:56:00;;;;;;;5.55;2.20;;;;;;;;;;5013759;28;20046;-78
2023/03/30 08:58:27;;;;;;;;;;;;;;;;;;4996594;28;20046;-79
2023/03/30 09:01:18;;;;;;;5.88;1.70;;;;;;;;;;5013507;28;19927;-78
2023/03/30 09:03:45;;;;;;;2.95;1.40;;;;;;;;;;5014271;28;20042;-79
2023/03/30 09:06:19;;;;;;;2.58;1.50;;;;;;;;;;4996390;28;20109;-77
2023/03/30 09:08:47;;;;;;;4.68;1.35;;;;;;;;;;5014640;28;20050;-80
2023/03/30 09:11:17;;;;;;;2.63;1.13;;;;;;;;;;4996977;28;20053;-78
2023/03/30 09:13:45;;;;;;;6.75;1.35;;;;;;;;;;5014313;28;20145;-78
2023/03/30 09:16:13;;;;;;;4.43;1.30;;;;;;;;;;4996263;28;20089;-81
2023/03/30 09:18:41;;;;;;;4.93;1.63;;;;;;;;;;4997354;28;20041;-78
2023/03/30 09:21:10;;;;;;;1.92;1.30;;;;;;;;;;5014703;28;20096;-80
2023/03/30 09:23:38;;;;;;;2.58;1.38;;;;;;;;;;5014409;28;20108;-80
2023/03/30 09:26:05;;;;;;;3.03;1.30;;;;;;;;;;5014028;28;20077;-80
2023/03/30 09:28:32;;;;;;;2.45;1.00;;;;;;;;;;5014137;28;20136;-80
2023/03/30 09:31:00;;;;;;;4.18;1.67;;;;;;;;;;5013867;28;20082;-81
2023/03/30 09:33:31;;;;;;;3.15;1.60;;;;;;;;;;4996156;28;20057;-80
2023/03/30 09:36:10;;;;;;;2.58;1.50;;;;;;;;;;5013470;28;20115;-80
2023/03/30 09:38:40;;;;;;;4.10;1.60;;;;;;;;;;5013633;28;20069;-79
2023/03/30 09:41:16;;;;;;;10.25;2.75;;;;;;;;;;4996120;28;20145;-78
2023/03/30 09:43:45;;;;;;;5.28;1.90;;;;;;;;;;5012866;28;20092;-79
2023/03/30 09:46:13;;;;;;;5.53;2.05;;;;;;;;;;5013527;28;20249;-79
2023/03/30 09:48:42;;;;;;;3.42;2.30;;;;;;;;;;4995454;28;20566;-77
2023/03/30 09:51:26;;;;;;;4.30;2.53;;;;;;;;;;4995647;28;20088;-79
2023/03/30 09:54:05;;;;;;;7.38;2.85;;;;;;;;;;4996187;28;20424;-79
2023/03/30 09:56:35;;;;;;;9.15;3.38;;;;;;;;;;4995899;28;20081;-78
2023/03/30 09:59:23;;;;;;;5.28;2.53;;;;;;;;;;4995529;28;20054;-79
2023/03/30 10:01:50;;;;;;;3.60;2.42;;;;;;;;;;5012798;28;20052;-79
2023/03/30 10:04:18;;;;;;;6.00;2.58;;;;;;;;;;5012545;28;20050;-79
2023/03/30 10:06:47;;;;;;;3.60;2.65;;;;;;;;;;5012967;28;20054;-78
2023/03/30 10:09:15;;;;;;;7.63;3.28;;;;;;;;;;4995102;28;20086;-78
2023/03/30 10:11:43;;;;;;;7.72;2.50;;;;;;;;;;4995246;28;20341;-79
2023/03/30 10:14:31;;;;;;;6.97;2.30;;;;;;;;;;4994895;28;20080;-77
2023/03/30 10:16:59;;;;;;;8.40;2.85;;;;;;;;;;4995120;28;20428;-80
2023/03/30 10:19:26;;;;;;;8.68;2.75;;;;;;;;;;5012336;28;20050;-79
2023/03/30 10:21:56;;;;;;;6.70;2.88;;;;;;;;;;4995212;28;20125;-78
2023/03/30 10:24:25;;;;;;;10.18;2.50;;;;;;;;;;5012289;28;20104;-79
2023/03/30 10:26:56;;;;;;;5.72;2.45;;;;;;;;;;4995117;28;20049;-81
2023/03/30 10:29:25;;;;;;;3.03;2.65;;;;;;;;;;4995210;28;20046;-78
2023/03/30 10:31:57;;;;;;;5.30;2.58;;;;;;;;;;4995113;28;20591;-80
2023/03/30 10:34:34;;;;;;;4.13;2.10;;;;;;;;;;5012654;28;20050;-78
2023/03/30 10:37:05;;;;;;;4.88;2.53;;;;;;;;;;4995163;28;20050;-80
2023/03/30 10:39:33;;;;;;;8.50;2.65;;;;;;;;;;4995021;28;20104;-79
2023/03/30 10:42:03;;;;;;;3.97;2.17;;;;;;;;;;4995335;28;20104;-81
2023/03/30 10:44:31;;;;;;;6.90;2.05;;;;;;;;;;5012384;28;20054;-81
2023/03/30 10:47:08;;;;;;;7.55;2.70;;;;;;;;;;5012908;28;20060;-81
2023/03/30 10:49:53;;;;;;;4.93;2.10;;;;;;;;;;5012429;28;20050;-81
2023/03/30 10:52:33;;;;;;;5.53;2.40;;;;;;;;;;4995255;28;20050;-80
2023/03/30 10:55:17;;;;;;;8.48;3.03;;;;;;;;;;5012109;28;20133;-81
2023/03/30 10:58:03;;;;;;;5.45;2.45;;;;;;;;;;4998198;28;20046;-80
2023/03/30 11:00:47;;;;;;;4.93;2.67;;;;;;;;;;4998924;28;20061;-83
2023/03/30 11:03:25;;;;;;;5.60;2.67;;;;;;;;;;5003762;28;20049;-85
2023/03/30 11:05:56;;;;;;;6.60;2.72;;;;;;;;;;5003448;28;20077;-82
2023/03/30 11:08:26;;;;;;;6.80;2.67;;;;;;;;;;5002484;28;20080;-83
2023/03/30 11:10:54;;;;;;;7.75;2.80;;;;;;;;;;5021343;28;20050;-83
2023/03/30 11:13:33;;;;;;;3.97;2.53;;;;;;;;;;5000907;28;20584;-79
2023/03/30 11:16:07;;;;;;;6.47;2.40;;;;;;;;;;4997862;28;20046;-83
2023/03/30 11:18:35;;;;;;;8.55;2.40;;;;;;;;;;4997934;28;20050;-83
2023/03/30 11:21:07;;;;;;;6.32;2.53;;;;;;;;;;5015930;28;20041;-82
2023/03/30 11:23:34;;;;;;;7.10;2.00;;;;;;;;;;5016316;28;20050;-81
2023/03/30 11:26:23;;;;;;;5.93;2.63;;;;;;;;;;5000829;28;20567;-84
2023/03/30 11:28:55;;;;;;;5.63;1.95;;;;;;;;;;5001682;28;20153;-84
2023/03/30 11:31:22;;;;;;;6.25;2.45;;;;;;;;;;5019437;28;20045;-83
2023/03/30 11:33:53;;;;;;;5.30;1.92;;;;;;;;;;5002299;28;20402;-84
2023/03/30 11:36:24;;;;;;;5.25;1.80;;;;;;;;;;5000890;28;20052;-82
2023/03/30 11:39:06;;;;;;;14.10;1.90;;;;;;;;;;5000529;28;20061;-83
2023/03/30 11:41:38;;;;;;;6.28;2.38;;;;;;;;;;5000391;28;20097;-83
2023/03/30 11:44:05;;;;;;;6.18;1.95;;;;;;;;;;5017485;28;20137;-84
2023/03/30 11:46:38;;;;;;;5.20;1.75;;;;;;;;;;5017372;28;20085;-84
2023/03/30 11:49:24;;;;;;;6.93;1.75;;;;;;;;;;5017225;28;20054;-82
2023/03/30 11:51:54;;;;;;;5.22;1.70;;;;;;;;;;4999670;28;20085;-82
2023/03/30 11:54:46;;;;;;;5.03;1.83;;;;;;;;;;4998638;28;20060;-85
2023/03/30 11:57:34;;;;;;;6.20;1.80;;;;;;;;;;5016535;28;20050;-82
2023/03/30 12:00:19;;;;;;;5.80;1.80;;;;;;;;;;4998455;28;20504;-82
2023/03/30 12:02:49;;;;;;;3.03;1.27;;;;;;;;;;5016142;28;20049;-83
2023/03/30 12:05:17;;;;;;;4.53;1.80;;;;;;;;;;5015797;28;20054;-84
2023/03/30 12:07:50;;;;;;;4.22;2.00;;;;;;;;;;4997781;28;20049;-81
2023/03/30 12:10:18;;;;;;;;;;;;;;;;;;5002628;28;20049;-83
2023/03/30 12:12:46;;;;;;;3.22;1.35;;;;;;;;;;5019723;28;19931;-83
2023/03/30 12:15:21;;;;;;;10.38;1.80;;;;;;;;;;5019204;28;20054;-82
2023/03/30 12:17:53;;;;;;;5.93;1.80;;;;;;;;;;5001156;28;20084;-83
2023/03/30 12:20:24;;;;;;;4.38;1.73;;;;;;;;;;5018090;28;20500;-84
2023/03/30 12:23:10;;;;;;;4.45;1.52;;;;;;;;;;5018252;28;20092;-83
2023/03/30 12:25:40;;;;;;;18.35;3.33;;;;;;;;;;5017711;28;20124;-84
2023/03/30 12:28:10;;;;;;;4.88;1.50;;;;;;;;;;5000163;28;20495;-83
2023/03/30 12:30:54;;;;;;;9.55;1.95;;;;;;;;;;5017276;28;20410;-83
2023/03/30 12:33:27;;;;;;;3.53;1.60;;;;;;;;;;4999131;28;20052;-81
2023/03/30 12:35:56;;;;;;;7.18;2.08;;;;;;;;;;5018893;28;20093;-85
2023/03/30 12:38:37;;;;;;;4.35;1.35;;;;;;;;;;5002158;28;20046;-82
2023/03/30 12:41:13;;;;;;;6.38;1.70;;;;;;;;;;5000951;28;20096;-82
2023/03/30 12:43:48;;;;;;;7.53;2.05;;;;;;;;;;5000301;28;20048;-82
2023/03/30 12:46:24;;;;;;;4.22;1.52;;;;;;;;;;5000242;28;20077;-83
2023/03/30 12:48:57;;;;;;;19.17;2.60;;;;;;;;;;4997023;28;20050;-82
2023/03/30 12:51:36;;;;;;;8.13;1.92;;;;;;;;;;5013354;28;20051;-82
2023/03/30 12:54:09;;;;;;;6.18;1.75;;;;;;;;;;4996509;28;20053;-81
2023/03/30 12:56:53;;;;;;;6.15;1.40;;;;;;;;;;5013387;28;20089;-82
2023/03/30 12:59:27;;;;;;;6.57;1.50;;;;;;;;;;5013266;28;20053;-83
2023/03/30 13:02:06;;;;;;;5.40;1.58;;;;;;;;;;5013964;28;20078;-82
2023/03/30 13:04:38;;;;;;;10.48;1.88;;;;;;;;;;4996190;28;20056;-82
2023/03/30 13:07:07;;;;;;;4.03;1.60;;;;;;;;;;4995770;28;20504;-81
2023/03/30 13:09:35;;;;;;;5.32;1.50;;;;;;;;;;4996043;28;20046;-81
2023/03/30 13:12:03;;;;;;;3.17;1.58;;;;;;;;;;5013293;28;20077;-83
2023/03/30 13:14:30;;;;;;;4.05;1.40;;;;;;;;;;4996302;28;20077;-81
2023/03/30 13:16:57;;;;;;;6.18;1.63;;;;;;;;;;4995718;28;20050;-82
2023/03/30 13:19:40;;;;;;;3.35;1.13;;;;;;;;;;5012591;28;20065;-82
2023/03/30 13:22:11;;;;;;;5.28;1.50;;;;;;;;;;4996246;28;20045;-82
2023/03/30 13:24:38;;;;;;;3.38;1.17;;;;;;;;;;5013606;28;20064;-82
2023/03/30 13:27:10;;;;;;;12.02;1.77;;;;;;;;;;5013661;28;20057;-83
2023/03/30 13:29:37;;;;;;;1.90;1.08;;;;;;;;;;4995613;28;20501;-80
2023/03/30 13:32:20;;;;;;;8.27;1.80;;;;;;;;;;5013064;28;20096;-81
2023/03/30 13:35:04;;;;;;;8.40;1.88;;;;;;;;;;5013485;28;20421;-83
2023/03/30 13:37:37;;;;;;;4.93;1.60;;;;;;;;;;4996382;28;20485;-83
2023/03/30 13:40:33;;;;;;;8.65;1.50;;;;;;;;;;4995841;28;20137;-84
2023/03/30 13:43:12;;;;;;;3.67;1.33;;;;;;;;;;4988162;28;20524;-83
2023/03/30 13:45:45;;;;;;;2.78;1.33;;;;;;;;;;4996359;28;20077;-83
2023/03/30 13:48:14;;;;;;;2.88;1.63;;;;;;;;;;4996935;28;20046;-84
2023/03/30 13:50:45;;;;;;;5.90;1.33;;;;;;;;;;5013705;28;20049;-81
2023/03/30 13:53:15;;;;;;;4.82;1.40;;;;;;;;;;4996368;28;20089;-82
2023/03/30 13:55:43;;;;;;;3.00;1.20;;;;;;;;;;4995848;28;20137;-81
2023/03/30 13:58:17;;;;;;;2.70;1.27;;;;;;;;;;5016540;28;20050;-82
2023/03/30 14:00:47;;;;;;;3.92;1.25;;;;;;;;;;4975414;28;20138;-81
2023/03/30 14:03:38;;;;;;;6.75;1.33;;;;;;;;;;4991512;28;20047;-82
2023/03/30 14:06:15;;;;;;;3.47;1.20;;;;;;;;;;4966100;28;20097;-82
2023/03/30 14:08:45;;;;;;;4.15;1.33;;;;;;;;;;4994822;28;20050;-82
2023/03/30 14:11:22;;;;;;;4.53;1.08;;;;;;;;;;4978764;28;20057;-82
2023/03/30 14:13:51;;;;;;;2.80;1.00;;;;;;;;;;4978705;28;20085;-81
2023/03/30 14:16:20;;;;;;;4.53;1.02;;;;;;;;;;4995230;28;20104;-79
2023/03/30 14:18:48;;;;;;;1.30;0.63;;;;;;;;;;4979811;28;20054;-81
2023/03/30 14:21:17;;;;;;;2.15;0.40;;;;;;;;;;4979297;28;20058;-83
2023/03/30 14:23:47;;;;;;;8.93;1.08;;;;;;;;;;4978475;28;20137;-79
2023/03/30 14:26:15;;;;;;;2.72;0.80;;;;;;;;;;4978083;28;20504;-79
2023/03/30 14:28:43;;;;;;;1.17;0.70;;;;;;;;;;4977953;28;20050;-79
2023/03/30 14:31:17;;;;;;;3.30;0.85;;;;;;;;;;4980192;28;20058;-79
2023/03/30 14:33:45;;;;;;;2.97;0.73;;;;;;;;;;4989141;28;20050;-80
2023/03/30 14:36:15;;;;;;;4.38;0.93;;;;;;;;;;4985848;28;20085;-79
2023/03/30 14:38:44;;;;;;;1.40;0.70;;;;;;;;;;5006091;28;20046;-79
2023/03/30 14:41:26;;;;;;;1.33;0.50;;;;;;;;;;5000689;28;20046;-79
2023/03/30 14:43:58;;;;;;;1.17;0.50;;;;;;;;;;4983904;28;20046;-79
2023/03/30 14:46:28;;;;;;;1.15;0.40;;;;;;;;;;5000518;28;20509;-80
2023/03/30 14:48:55;;;;;;;1.33;0.50;;;;;;;;;;5001035;28;20050;-80
2023/03/30 14:51:40;;;;;;;0.52;0.52;;;;;;;;;;4982329;28;20047;-80
2023/03/30 14:54:12;;;;;;;3.03;0.63;;;;;;;;;;4982177;28;20069;-80
2023/03/30 14:56:39;;;;;;;0.90;0.50;;;;;;;;;;4999894;28;20050;-80
2023/03/30 14:59:08;;;;;;;2.63;0.60;;;;;;;;;;4999958;28;20062;-80
2023/03/30 15:01:35;;;;;;;1.67;0.73;;;;;;;;;;5000499;28;20054;-80
2023/03/30 15:04:10;;;;;;;1.67;0.70;;;;;;;;;;4980614;28;20130;-80
2023/03/30 15:06:37;;;;;;;1.77;1.20;;;;;;;;;;4999191;28;20118;-81